Terminal Aerodrome Forecast
Issued by NWS Cleveland, OH

Home | Current Version | Previous Version | Text Only | Print | Product List | Glossary On
Versions: 1 2 3 4 5 6 7 8 9 10 11 12 13 14 15 16 17 18 19 20 21 22 23 24 25 26 27 28 29
000
FTUS41 KCLE 231504 AAB
TAFCLE
TAF AMD
KCLE 231504Z 2315/2418 04011KT 3SM -RA BR OVC003
      TEMPO 2316/2320 1 1/2SM BR OVC002
     FM240000 04008KT 3SM -DZ BR OVC005
     FM241500 34007KT 6SM BR OVC010=

USA.gov is the U.S. government's official web portal to all federal, state and local government web resources and services.